sensor_id;sensor_type;location;lat;lon;timestamp;pressure;altitude;pressure_sealevel;temperature;humidity
21240;BME280;10778;48.962;9.018;2024-01-27T00:01:43;100869.19;;;-0.21;100.00
21240;BME280;10778;48.962;9.018;2024-01-27T00:04:09;100870.09;;;-0.22;100.00
21240;BME280;10778;48.962;9.018;2024-01-27T00:06:35;100876.13;;;-0.23;100.00
21240;BME280;10778;48.962;9.018;2024-01-27T00:09:01;100866.72;;;-0.25;100.00
21240;BME280;10778;48.962;9.018;2024-01-27T00:11:27;100879.72;;;-0.30;100.00
21240;BME280;10778;48.962;9.018;2024-01-27T00:13:53;100885.84;;;-0.37;100.00
21240;BME280;10778;48.962;9.018;2024-01-27T00:16:20;100887.72;;;-0.46;100.00
21240;BME280;10778;48.962;9.018;2024-01-27T00:18:46;100892.91;;;-0.47;100.00
21240;BME280;10778;48.962;9.018;2024-01-27T00:21:12;100896.31;;;-0.45;100.00
21240;BME280;10778;48.962;9.018;2024-01-27T00:23:38;100895.47;;;-0.47;100.00
21240;BME280;10778;48.962;9.018;2024-01-27T00:26:04;100898.09;;;-0.49;100.00
21240;BME280;10778;48.962;9.018;2024-01-27T00:28:30;100899.03;;;-0.54;100.00
21240;BME280;10778;48.962;9.018;2024-01-27T00:30:56;100892.22;;;-0.62;100.00
21240;BME280;10778;48.962;9.018;2024-01-27T00:33:22;100897.50;;;-0.68;100.00
21240;BME280;10778;48.962;9.018;2024-01-27T00:35:48;100895.81;;;-0.70;100.00
21240;BME280;10778;48.962;9.018;2024-01-27T00:38:14;100907.00;;;-0.70;100.00
21240;BME280;10778;48.962;9.018;2024-01-27T00:40:40;100904.44;;;-0.72;100.00
21240;BME280;10778;48.962;9.018;2024-01-27T00:43:06;100903.66;;;-0.75;100.00
21240;BME280;10778;48.962;9.018;2024-01-27T00:45:32;100901.06;;;-0.77;100.00
21240;BME280;10778;48.962;9.018;2024-01-27T00:47:58;100903.69;;;-0.80;100.00
21240;BME280;10778;48.962;9.018;2024-01-27T00:50:25;100911.50;;;-0.83;100.00
21240;BME280;10778;48.962;9.018;2024-01-27T00:52:51;100899.47;;;-0.87;100.00
21240;BME280;10778;48.962;9.018;2024-01-27T00:55:17;100904.75;;;-0.95;100.00
21240;BME280;10778;48.962;9.018;2024-01-27T00:57:43;100910.81;;;-0.97;100.00
21240;BME280;10778;48.962;9.018;2024-01-27T01:00:10;100909.16;;;-1.02;100.00
21240;BME280;10778;48.962;9.018;2024-01-27T01:02:37;100914.38;;;-1.06;100.00
21240;BME280;10778;48.962;9.018;2024-01-27T01:05:03;100905.78;;;-1.10;100.00
21240;BME280;10778;48.962;9.018;2024-01-27T01:07:30;100905.84;;;-1.15;100.00
21240;BME280;10778;48.962;9.018;2024-01-27T01:09:56;100911.94;;;-1.17;100.00
21240;BME280;10778;48.962;9.018;2024-01-27T01:12:22;100914.50;;;-1.17;100.00
21240;BME280;10778;48.962;9.018;2024-01-27T01:14:48;100915.38;;;-1.18;100.00
21240;BME280;10778;48.962;9.018;2024-01-27T01:17:14;100924.84;;;-1.19;100.00
21240;BME280;10778;48.962;9.018;2024-01-27T01:19:41;100923.25;;;-1.31;100.00
21240;BME280;10778;48.962;9.018;2024-01-27T01:22:07;100924.06;;;-1.25;100.00
21240;BME280;10778;48.962;9.018;2024-01-27T01:24:33;100930.06;;;-1.22;100.00
21240;BME280;10778;48.962;9.018;2024-01-27T01:26:59;100926.66;;;-1.27;100.00
21240;BME280;10778;48.962;9.018;2024-01-27T01:29:26;100924.13;;;-1.33;100.00
21240;BME280;10778;48.962;9.018;2024-01-27T01:31:53;100924.16;;;-1.35;100.00
21240;BME280;10778;48.962;9.018;2024-01-27T01:34:19;100925.13;;;-1.44;100.00
21240;BME280;10778;48.962;9.018;2024-01-27T01:36:45;100933.72;;;-1.41;100.00
21240;BME280;10778;48.962;9.018;2024-01-27T01:39:11;100937.97;;;-1.39;100.00
21240;BME280;10778;48.962;9.018;2024-01-27T01:41:41;100936.28;;;-1.43;100.00
21240;BME280;10778;48.962;9.018;2024-01-27T01:44:07;100943.16;;;-1.42;100.00
21240;BME280;10778;48.962;9.018;2024-01-27T01:46:33;100945.78;;;-1.47;100.00
21240;BME280;10778;48.962;9.018;2024-01-27T01:49:00;100948.38;;;-1.47;100.00
21240;BME280;10778;48.962;9.018;2024-01-27T01:51:27;100945.81;;;-1.48;100.00
21240;BME280;10778;48.962;9.018;2024-01-27T01:53:58;100956.09;;;-1.45;100.00
21240;BME280;10778;48.962;9.018;2024-01-27T01:56:25;100958.69;;;-1.45;100.00
21240;BME280;10778;48.962;9.018;2024-01-27T01:58:51;100959.56;;;-1.45;100.00
21240;BME280;10778;48.962;9.018;2024-01-27T02:01:19;100957.81;;;-1.46;100.00
21240;BME280;10778;48.962;9.018;2024-01-27T02:03:57;100960.44;;;-1.49;100.00
21240;BME280;10778;48.962;9.018;2024-01-27T02:06:23;100965.63;;;-1.50;100.00
21240;BME280;10778;48.962;9.018;2024-01-27T02:08:50;100964.81;;;-1.52;100.00
21240;BME280;10778;48.962;9.018;2024-01-27T02:11:16;100965.72;;;-1.60;100.00
21240;BME280;10778;48.962;9.018;2024-01-27T02:13:42;100981.19;;;-1.60;100.00
21240;BME280;10778;48.962;9.018;2024-01-27T02:16:08;100975.16;;;-1.59;100.00
21240;BME280;10778;48.962;9.018;2024-01-27T02:18:35;100976.91;;;-1.59;100.00
21240;BME280;10778;48.962;9.018;2024-01-27T02:21:01;100982.94;;;-1.60;100.00
21240;BME280;10778;48.962;9.018;2024-01-27T02:23:26;100988.97;;;-1.64;100.00
21240;BME280;10778;48.962;9.018;2024-01-27T02:25:52;100995.00;;;-1.65;100.00
21240;BME280;10778;48.962;9.018;2024-01-27T02:28:18;100994.16;;;-1.67;100.00
21240;BME280;10778;48.962;9.018;2024-01-27T02:30:44;100995.00;;;-1.65;100.00
21240;BME280;10778;48.962;9.018;2024-01-27T02:33:10;100995.94;;;-1.73;100.00
21240;BME280;10778;48.962;9.018;2024-01-27T02:35:36;100998.53;;;-1.71;100.00
21240;BME280;10778;48.962;9.018;2024-01-27T02:38:02;100997.63;;;-1.68;100.00
21240;BME280;10778;48.962;9.018;2024-01-27T02:40:28;101002.81;;;-1.70;100.00
21240;BME280;10778;48.962;9.018;2024-01-27T02:42:54;100997.66;;;-1.70;100.00
21240;BME280;10778;48.962;9.018;2024-01-27T02:45:20;101004.56;;;-1.75;100.00
21240;BME280;10778;48.962;9.018;2024-01-27T02:47:46;101002.00;;;-1.77;100.00
21240;BME280;10778;48.962;9.018;2024-01-27T02:50:12;100993.38;;;-1.77;100.00
21240;BME280;10778;48.962;9.018;2024-01-27T02:52:38;100995.13;;;-1.78;100.00
21240;BME280;10778;48.962;9.018;2024-01-27T02:55:05;100994.25;;;-1.78;100.00
21240;BME280;10778;48.962;9.018;2024-01-27T02:57:31;100988.31;;;-1.90;100.00
21240;BME280;10778;48.962;9.018;2024-01-27T02:59:57;100990.91;;;-1.91;100.00
21240;BME280;10778;48.962;9.018;2024-01-27T03:02:23;100989.22;;;-1.94;100.00
21240;BME280;10778;48.962;9.018;2024-01-27T03:04:49;100994.41;;;-1.97;100.00
21240;BME280;10778;48.962;9.018;2024-01-27T03:07:15;100991.00;;;-2.02;100.00
21240;BME280;10778;48.962;9.018;2024-01-27T03:09:41;100997.00;;;-2.02;100.00
21240;BME280;10778;48.962;9.018;2024-01-27T03:12:07;100993.56;;;-2.01;100.00
21240;BME280;10778;48.962;9.018;2024-01-27T03:14:33;100999.59;;;-2.03;100.00
21240;BME280;10778;48.962;9.018;2024-01-27T03:16:59;100998.75;;;-2.08;100.00
21240;BME280;10778;48.962;9.018;2024-01-27T03:19:25;101002.19;;;-2.05;100.00
21240;BME280;10778;48.962;9.018;2024-01-27T03:21:51;101003.09;;;-2.09;100.00
21240;BME280;10778;48.962;9.018;2024-01-27T03:24:17;101002.22;;;-2.08;100.00
21240;BME280;10778;48.962;9.018;2024-01-27T03:26:43;100995.34;;;-2.10;100.00
21240;BME280;10778;48.962;9.018;2024-01-27T03:29:09;100994.47;;;-2.09;100.00
21240;BME280;10778;48.962;9.018;2024-01-27T03:31:35;101002.22;;;-2.09;100.00
21240;BME280;10778;48.962;9.018;2024-01-27T03:34:02;101015.13;;;-2.12;100.00
21240;BME280;10778;48.962;9.018;2024-01-27T03:36:28;101025.50;;;-2.20;100.00
21240;BME280;10778;48.962;9.018;2024-01-27T03:38:56;101027.22;;;-2.21;100.00
21240;BME280;10778;48.962;9.018;2024-01-27T03:41:22;101029.81;;;-2.25;100.00
21240;BME280;10778;48.962;9.018;2024-01-27T03:43:48;101034.13;;;-2.24;100.00
21240;BME280;10778;48.962;9.018;2024-01-27T03:46:15;101041.88;;;-2.29;100.00
21240;BME280;10778;48.962;9.018;2024-01-27T03:48:41;101026.41;;;-2.27;100.00
21240;BME280;10778;48.962;9.018;2024-01-27T03:51:07;101028.97;;;-2.26;100.00
21240;BME280;10778;48.962;9.018;2024-01-27T03:53:33;101035.84;;;-2.28;100.00
21240;BME280;10778;48.962;9.018;2024-01-27T03:55:59;101030.72;;;-2.36;100.00
21240;BME280;10778;48.962;9.018;2024-01-27T03:58:28;101029.00;;;-2.31;100.00
21240;BME280;10778;48.962;9.018;2024-01-27T04:00:54;101039.31;;;-2.32;100.00
21240;BME280;10778;48.962;9.018;2024-01-27T04:03:20;101047.94;;;-2.38;100.00
21240;BME280;10778;48.962;9.018;2024-01-27T04:05:46;101043.63;;;-2.36;100.00
21240;BME280;10778;48.962;9.018;2024-01-27T04:08:12;101035.88;;;-2.33;100.00
21240;BME280;10778;48.962;9.018;2024-01-27T04:10:38;101041.03;;;-2.36;100.00
21240;BME280;10778;48.962;9.018;2024-01-27T04:13:04;101041.88;;;-2.32;100.00
21240;BME280;10778;48.962;9.018;2024-01-27T04:15:33;101039.34;;;-2.35;100.00
21240;BME280;10778;48.962;9.018;2024-01-27T04:18:05;101041.06;;;-2.40;100.00
21240;BME280;10778;48.962;9.018;2024-01-27T04:20:34;101047.09;;;-2.49;100.00
21240;BME280;10778;48.962;9.018;2024-01-27T04:23:01;101047.13;;;-2.48;100.00
21240;BME280;10778;48.962;9.018;2024-01-27T04:25:27;101046.28;;;-2.59;100.00
21240;BME280;10778;48.962;9.018;2024-01-27T04:27:53;101048.88;;;-2.61;100.00
21240;BME280;10778;48.962;9.018;2024-01-27T04:30:19;101054.00;;;-2.54;100.00
21240;BME280;10778;48.962;9.018;2024-01-27T04:32:45;101054.88;;;-2.55;100.00
21240;BME280;10778;48.962;9.018;2024-01-27T04:35:12;101052.31;;;-2.54;100.00
21240;BME280;10778;48.962;9.018;2024-01-27T04:37:38;101060.06;;;-2.62;100.00
21240;BME280;10778;48.962;9.018;2024-01-27T04:40:07;101066.94;;;-2.61;100.00
21240;BME280;10778;48.962;9.018;2024-01-27T04:42:34;101068.66;;;-2.64;100.00
21240;BME280;10778;48.962;9.018;2024-01-27T04:45:00;101066.94;;;-2.64;100.00
21240;BME280;10778;48.962;9.018;2024-01-27T04:47:26;101063.50;;;-2.66;100.00
21240;BME280;10778;48.962;9.018;2024-01-27T04:49:53;101072.09;;;-2.65;100.00
21240;BME280;10778;48.962;9.018;2024-01-27T04:52:19;101068.66;;;-2.64;100.00
21240;BME280;10778;48.962;9.018;2024-01-27T04:54:45;101074.66;;;-2.62;100.00
21240;BME280;10778;48.962;9.018;2024-01-27T04:57:11;101077.25;;;-2.68;100.00
21240;BME280;10778;48.962;9.018;2024-01-27T04:59:37;101075.56;;;-2.73;100.00
21240;BME280;10778;48.962;9.018;2024-01-27T05:02:03;101079.84;;;-2.73;100.00
21240;BME280;10778;48.962;9.018;2024-01-27T05:04:29;101079.84;;;-2.73;100.00
21240;BME280;10778;48.962;9.018;2024-01-27T05:06:55;101081.53;;;-2.69;100.00
21240;BME280;10778;48.962;9.018;2024-01-27T05:09:21;101079.84;;;-2.72;100.00
21240;BME280;10778;48.962;9.018;2024-01-27T05:11:48;101089.28;;;-2.75;100.00
21240;BME280;10778;48.962;9.018;2024-01-27T05:14:17;101082.44;;;-2.81;100.00
21240;BME280;10778;48.962;9.018;2024-01-27T05:16:43;101086.75;;;-2.81;100.00
21240;BME280;10778;48.962;9.018;2024-01-27T05:19:10;101088.47;;;-2.90;100.00
21240;BME280;10778;48.962;9.018;2024-01-27T05:21:37;101087.63;;;-2.90;100.00
21240;BME280;10778;48.962;9.018;2024-01-27T05:24:04;101087.59;;;-2.89;100.00
21240;BME280;10778;48.962;9.018;2024-01-27T05:26:30;101081.59;;;-2.91;100.00
21240;BME280;10778;48.962;9.018;2024-01-27T05:28:56;101088.47;;;-2.90;100.00
21240;BME280;10778;48.962;9.018;2024-01-27T05:31:22;101075.59;;;-2.88;100.00
21240;BME280;10778;48.962;9.018;2024-01-27T05:33:48;101083.31;;;-2.93;100.00
21240;BME280;10778;48.962;9.018;2024-01-27T05:36:14;101081.63;;;-2.97;100.00
21240;BME280;10778;48.962;9.018;2024-01-27T05:38:40;101083.34;;;-2.99;100.00
21240;BME280;10778;48.962;9.018;2024-01-27T05:41:06;101079.03;;;-3.02;100.00
21240;BME280;10778;48.962;9.018;2024-01-27T05:43:32;101085.91;;;-3.01;100.00
21240;BME280;10778;48.962;9.018;2024-01-27T05:45:58;101078.19;;;-3.04;100.00
21240;BME280;10778;48.962;9.018;2024-01-27T05:48:25;101082.50;;;-3.06;100.00
21240;BME280;10778;48.962;9.018;2024-01-27T05:51:00;101089.38;;;-3.08;100.00
21240;BME280;10778;48.962;9.018;2024-01-27T05:53:27;101091.94;;;-3.16;100.00
21240;BME280;10778;48.962;9.018;2024-01-27T05:55:53;101079.91;;;-3.20;100.00
21240;BME280;10778;48.962;9.018;2024-01-27T05:58:20;101082.50;;;-3.15;100.00
21240;BME280;10778;48.962;9.018;2024-01-27T06:00:49;101081.66;;;-3.16;100.00
21240;BME280;10778;48.962;9.018;2024-01-27T06:03:15;101079.91;;;-3.20;100.00
21240;BME280;10778;48.962;9.018;2024-01-27T06:05:43;101083.34;;;-3.18;100.00
21240;BME280;10778;48.962;9.018;2024-01-27T06:08:09;101088.50;;;-3.16;100.00
21240;BME280;10778;48.962;9.018;2024-01-27T06:10:35;101088.50;;;-3.15;100.00
21240;BME280;10778;48.962;9.018;2024-01-27T06:13:04;101096.22;;;-3.13;100.00
21240;BME280;10778;48.962;9.018;2024-01-27T06:15:31;101092.81;;;-3.13;100.00
21240;BME280;10778;48.962;9.018;2024-01-27T06:17:57;101091.09;;;-3.15;100.00
21240;BME280;10778;48.962;9.018;2024-01-27T06:20:25;101087.66;;;-3.17;100.00
21240;BME280;10778;48.962;9.018;2024-01-27T06:22:51;101090.22;;;-3.26;100.00
21240;BME280;10778;48.962;9.018;2024-01-27T06:25:21;101096.25;;;-3.22;100.00
21240;BME280;10778;48.962;9.018;2024-01-27T06:27:47;101103.09;;;-3.24;100.00
21240;BME280;10778;48.962;9.018;2024-01-27T06:30:14;101098.78;;;-3.29;100.00
21240;BME280;10778;48.962;9.018;2024-01-27T06:32:42;101102.25;;;-3.28;100.00
21240;BME280;10778;48.962;9.018;2024-01-27T06:35:08;101104.81;;;-3.31;100.00
21240;BME280;10778;48.962;9.018;2024-01-27T06:37:34;101105.69;;;-3.37;100.00
21240;BME280;10778;48.962;9.018;2024-01-27T06:40:01;101106.53;;;-3.32;100.00
21240;BME280;10778;48.962;9.018;2024-01-27T06:42:27;101097.09;;;-3.31;100.00
21240;BME280;10778;48.962;9.018;2024-01-27T06:44:53;101103.09;;;-3.29;100.00
21240;BME280;10778;48.962;9.018;2024-01-27T06:47:19;101101.38;;;-3.32;100.00
21240;BME280;10778;48.962;9.018;2024-01-27T06:49:45;101101.38;;;-3.30;100.00
21240;BME280;10778;48.962;9.018;2024-01-27T06:52:11;101101.38;;;-3.32;100.00
21240;BME280;10778;48.962;9.018;2024-01-27T06:54:38;101097.09;;;-3.39;100.00
21240;BME280;10778;48.962;9.018;2024-01-27T06:57:20;101105.66;;;-3.43;100.00
21240;BME280;10778;48.962;9.018;2024-01-27T06:59:50;101109.09;;;-3.46;100.00
21240;BME280;10778;48.962;9.018;2024-01-27T07:04:50;101117.69;;;-3.36;100.00
21240;BME280;10778;48.962;9.018;2024-01-27T07:07:16;101121.09;;;-3.35;100.00
21240;BME280;10778;48.962;9.018;2024-01-27T07:09:43;101113.38;;;-3.41;100.00
21240;BME280;10778;48.962;9.018;2024-01-27T07:12:09;101126.25;;;-3.41;100.00
21240;BME280;10778;48.962;9.018;2024-01-27T07:14:35;101127.97;;;-3.47;100.00
21240;BME280;10778;48.962;9.018;2024-01-27T07:17:03;101133.09;;;-3.45;100.00
21240;BME280;10778;48.962;9.018;2024-01-27T07:19:29;101133.13;;;-3.39;100.00
21240;BME280;10778;48.962;9.018;2024-01-27T07:21:55;101116.84;;;-3.30;100.00
21240;BME280;10778;48.962;9.018;2024-01-27T07:24:21;101125.41;;;-3.22;100.00
21240;BME280;10778;48.962;9.018;2024-01-27T07:26:47;101127.13;;;-3.21;100.00
21240;BME280;10778;48.962;9.018;2024-01-27T07:29:13;101125.38;;;-2.88;100.00
21240;BME280;10778;48.962;9.018;2024-01-27T07:31:39;101132.16;;;-2.49;100.00
21240;BME280;10778;48.962;9.018;2024-01-27T07:34:05;101128.78;;;-2.65;100.00
21240;BME280;10778;48.962;9.018;2024-01-27T07:36:32;101133.94;;;-2.67;100.00
21240;BME280;10778;48.962;9.018;2024-01-27T07:38:59;101136.53;;;-2.68;100.00
21240;BME280;10778;48.962;9.018;2024-01-27T07:41:25;101138.28;;;-2.81;100.00
21240;BME280;10778;48.962;9.018;2024-01-27T07:43:50;101131.38;;;-2.68;100.00
21240;BME280;10778;48.962;9.018;2024-01-27T07:46:17;101138.16;;;-2.43;100.00
21240;BME280;10778;48.962;9.018;2024-01-27T07:48:45;101129.31;;;-0.72;100.00
21240;BME280;10778;48.962;9.018;2024-01-27T07:51:11;101122.84;;;0.34;98.94
21240;BME280;10778;48.962;9.018;2024-01-27T07:53:37;101116.78;;;1.40;91.58
21240;BME280;10778;48.962;9.018;2024-01-27T07:56:03;101109.22;;;2.15;86.42
21240;BME280;10778;48.962;9.018;2024-01-27T07:58:29;101104.63;;;2.64;82.19
21240;BME280;10778;48.962;9.018;2024-01-27T08:00:55;101099.19;;;3.08;78.12
21240;BME280;10778;48.962;9.018;2024-01-27T08:03:21;101107.53;;;3.52;75.78
21240;BME280;10778;48.962;9.018;2024-01-27T08:05:47;101108.00;;;3.67;75.56
21240;BME280;10778;48.962;9.018;2024-01-27T08:08:13;101100.06;;;4.02;71.15
21240;BME280;10778;48.962;9.018;2024-01-27T08:10:40;101100.59;;;4.68;72.14
21240;BME280;10778;48.962;9.018;2024-01-27T08:13:06;101098.44;;;4.54;69.57
21240;BME280;10778;48.962;9.018;2024-01-27T08:15:32;101089.78;;;5.32;66.73
21240;BME280;10778;48.962;9.018;2024-01-27T08:17:58;101087.25;;;5.03;66.59
21240;BME280;10778;48.962;9.018;2024-01-27T08:20:24;101081.09;;;5.55;66.47
21240;BME280;10778;48.962;9.018;2024-01-27T08:22:50;101081.06;;;6.26;64.47
21240;BME280;10778;48.962;9.018;2024-01-27T08:25:18;101071.69;;;6.43;63.94
21240;BME280;10778;48.962;9.018;2024-01-27T08:27:44;101079.75;;;6.15;63.82
21240;BME280;10778;48.962;9.018;2024-01-27T08:30:10;101079.53;;;6.43;62.95
21240;BME280;10778;48.962;9.018;2024-01-27T08:32:36;101087.06;;;6.29;63.84
21240;BME280;10778;48.962;9.018;2024-01-27T08:35:02;101070.41;;;7.16;62.51
21240;BME280;10778;48.962;9.018;2024-01-27T08:37:28;101075.56;;;6.76;61.98
21240;BME280;10778;48.962;9.018;2024-01-27T08:39:55;101075.53;;;6.77;63.60
21240;BME280;10778;48.962;9.018;2024-01-27T08:42:21;101066.13;;;7.13;61.74
21240;BME280;10778;48.962;9.018;2024-01-27T08:44:47;101075.78;;;7.32;61.05
21240;BME280;10778;48.962;9.018;2024-01-27T08:47:13;101075.41;;;7.99;59.43
21240;BME280;10778;48.962;9.018;2024-01-27T08:49:39;101071.97;;;7.79;58.42
21240;BME280;10778;48.962;9.018;2024-01-27T08:52:05;101069.81;;;7.49;61.75
21240;BME280;10778;48.962;9.018;2024-01-27T08:54:31;101059.22;;;8.27;59.82
21240;BME280;10778;48.962;9.018;2024-01-27T08:56:57;101061.34;;;8.19;58.61
21240;BME280;10778;48.962;9.018;2024-01-27T08:59:23;101061.75;;;7.92;60.88
21240;BME280;10778;48.962;9.018;2024-01-27T09:01:49;101049.84;;;9.93;56.50
21240;BME280;10778;48.962;9.018;2024-01-27T09:04:15;101065.34;;;8.63;57.42
21240;BME280;10778;48.962;9.018;2024-01-27T09:06:41;101069.25;;;7.80;60.67
21240;BME280;10778;48.962;9.018;2024-01-27T09:09:07;101075.16;;;8.22;60.87
21240;BME280;10778;48.962;9.018;2024-01-27T09:11:33;101066.69;;;8.72;59.73
21240;BME280;10778;48.962;9.018;2024-01-27T09:14:00;101064.38;;;9.34;57.67
21240;BME280;10778;48.962;9.018;2024-01-27T09:16:26;101074.03;;;8.09;60.95
21240;BME280;10778;48.962;9.018;2024-01-27T09:18:52;101072.09;;;9.37;59.00
21240;BME280;10778;48.962;9.018;2024-01-27T09:21:19;101071.00;;;9.58;59.34
21240;BME280;10778;48.962;9.018;2024-01-27T09:23:48;101065.19;;;10.17;57.15
21240;BME280;10778;48.962;9.018;2024-01-27T09:26:14;101061.66;;;10.93;55.26
21240;BME280;10778;48.962;9.018;2024-01-27T09:28:41;101065.69;;;10.07;56.17
21240;BME280;10778;48.962;9.018;2024-01-27T09:31:11;101075.06;;;10.60;55.49
21240;BME280;10778;48.962;9.018;2024-01-27T09:33:37;101085.25;;;10.34;56.19
21240;BME280;10778;48.962;9.018;2024-01-27T09:36:03;101085.34;;;10.32;57.46
21240;BME280;10778;48.962;9.018;2024-01-27T09:38:30;101086.53;;;10.27;57.53
21240;BME280;10778;48.962;9.018;2024-01-27T09:40:56;101083.97;;;11.02;57.67
21240;BME280;10778;48.962;9.018;2024-01-27T09:43:24;101083.28;;;11.44;57.10
21240;BME280;10778;48.962;9.018;2024-01-27T09:45:50;101073.72;;;12.27;54.03
21240;BME280;10778;48.962;9.018;2024-01-27T09:48:16;101064.44;;;13.13;50.82
21240;BME280;10778;48.962;9.018;2024-01-27T09:50:45;101076.78;;;12.61;52.71
21240;BME280;10778;48.962;9.018;2024-01-27T09:53:11;101066.66;;;12.93;51.24
21240;BME280;10778;48.962;9.018;2024-01-27T09:55:37;101074.25;;;11.90;52.47
21240;BME280;10778;48.962;9.018;2024-01-27T09:58:04;101088.75;;;10.95;55.68
21240;BME280;10778;48.962;9.018;2024-01-27T10:00:31;101083.97;;;10.88;56.08
21240;BME280;10778;48.962;9.018;2024-01-27T10:02:58;101081.84;;;11.38;54.38
21240;BME280;10778;48.962;9.018;2024-01-27T10:05:24;101089.34;;;11.88;54.45
21240;BME280;10778;48.962;9.018;2024-01-27T10:07:50;101090.16;;;12.17;53.40
21240;BME280;10778;48.962;9.018;2024-01-27T10:10:16;101083.81;;;11.34;54.89
21240;BME280;10778;48.962;9.018;2024-01-27T10:12:42;101083.81;;;11.63;54.48
21240;BME280;10778;48.962;9.018;2024-01-27T10:15:30;101089.47;;;11.43;53.90
21240;BME280;10778;48.962;9.018;2024-01-27T10:18:06;101087.75;;;12.27;52.65
21240;BME280;10778;48.962;9.018;2024-01-27T10:20:33;101091.16;;;11.15;54.04
21240;BME280;10778;48.962;9.018;2024-01-27T10:23:10;101091.38;;;11.26;54.70
21240;BME280;10778;48.962;9.018;2024-01-27T10:25:38;101090.13;;;11.17;54.37
21240;BME280;10778;48.962;9.018;2024-01-27T10:28:05;101077.44;;;12.37;52.70
21240;BME280;10778;48.962;9.018;2024-01-27T10:30:32;101075.88;;;11.92;52.92
21240;BME280;10778;48.962;9.018;2024-01-27T10:32:58;101074.72;;;11.97;53.33
21240;BME280;10778;48.962;9.018;2024-01-27T10:35:24;101073.63;;;12.69;51.56
21240;BME280;10778;48.962;9.018;2024-01-27T10:37:55;101068.94;;;12.19;52.32
21240;BME280;10778;48.962;9.018;2024-01-27T10:40:22;101058.44;;;12.04;53.83
21240;BME280;10778;48.962;9.018;2024-01-27T10:43:00;101066.78;;;10.97;56.94
21240;BME280;10778;48.962;9.018;2024-01-27T10:45:34;101060.25;;;10.73;57.88
21240;BME280;10778;48.962;9.018;2024-01-27T10:48:02;101056.34;;;10.18;59.51
21240;BME280;10778;48.962;9.018;2024-01-27T10:50:29;101053.56;;;9.89;59.41
21240;BME280;10778;48.962;9.018;2024-01-27T10:53:01;101052.81;;;10.03;59.65
21240;BME280;10778;48.962;9.018;2024-01-27T10:55:29;101051.31;;;9.49;61.46
21240;BME280;10778;48.962;9.018;2024-01-27T10:57:56;101027.03;;;10.40;59.35
21240;BME280;10778;48.962;9.018;2024-01-27T11:00:25;101029.66;;;10.40;59.67
21240;BME280;10778;48.962;9.018;2024-01-27T11:02:52;101030.50;;;9.94;61.16
21240;BME280;10778;48.962;9.018;2024-01-27T11:05:21;101040.81;;;9.49;62.72
21240;BME280;10778;48.962;9.018;2024-01-27T11:07:48;101029.59;;;10.25;60.08
21240;BME280;10778;48.962;9.018;2024-01-27T11:10:14;101030.88;;;10.65;59.93
21240;BME280;10778;48.962;9.018;2024-01-27T11:12:41;101022.28;;;10.92;58.72
21240;BME280;10778;48.962;9.018;2024-01-27T11:15:07;101014.06;;;10.37;59.15
21240;BME280;10778;48.962;9.018;2024-01-27T11:17:42;101013.28;;;10.35;61.10
21240;BME280;10778;48.962;9.018;2024-01-27T11:20:10;101011.66;;;10.02;60.59
21240;BME280;10778;48.962;9.018;2024-01-27T11:22:42;101007.44;;;9.99;60.72
21240;BME280;10778;48.962;9.018;2024-01-27T11:27:40;101017.94;;;9.83;61.49
21240;BME280;10778;48.962;9.018;2024-01-27T11:30:25;101025.19;;;10.26;59.77
21240;BME280;10778;48.962;9.018;2024-01-27T11:32:52;101020.75;;;10.43;60.09
21240;BME280;10778;48.962;9.018;2024-01-27T11:35:18;101025.56;;;9.88;61.48
21240;BME280;10778;48.962;9.018;2024-01-27T11:37:44;101018.66;;;9.71;60.99
21240;BME280;10778;48.962;9.018;2024-01-27T11:40:10;101018.78;;;9.51;61.09
21240;BME280;10778;48.962;9.018;2024-01-27T11:42:36;101022.81;;;9.09;63.58
21240;BME280;10778;48.962;9.018;2024-01-27T11:45:03;101016.41;;;8.79;63.65
21240;BME280;10778;48.962;9.018;2024-01-27T11:47:30;101021.00;;;8.58;66.30
21240;BME280;10778;48.962;9.018;2024-01-27T11:49:56;101020.66;;;8.29;67.23
21240;BME280;10778;48.962;9.018;2024-01-27T11:52:23;101016.00;;;8.53;66.44
21240;BME280;10778;48.962;9.018;2024-01-27T11:55:08;101013.94;;;8.94;63.94
21240;BME280;10778;48.962;9.018;2024-01-27T11:57:34;101018.22;;;9.13;66.14
21240;BME280;10778;48.962;9.018;2024-01-27T12:00:00;101017.03;;;9.52;64.16
21240;BME280;10778;48.962;9.018;2024-01-27T12:02:26;101008.75;;;10.06;62.12
21240;BME280;10778;48.962;9.018;2024-01-27T12:04:52;101001.66;;;9.92;63.47
21240;BME280;10778;48.962;9.018;2024-01-27T12:07:19;100995.66;;;9.74;63.35
21240;BME280;10778;48.962;9.018;2024-01-27T12:09:45;100989.13;;;9.65;62.92
21240;BME280;10778;48.962;9.018;2024-01-27T12:12:12;100988.47;;;10.08;61.89
21240;BME280;10778;48.962;9.018;2024-01-27T12:14:47;100992.59;;;9.82;62.37
21240;BME280;10778;48.962;9.018;2024-01-27T12:17:14;100987.78;;;9.58;63.50
21240;BME280;10778;48.962;9.018;2024-01-27T12:19:46;100975.81;;;9.52;62.08
21240;BME280;10778;48.962;9.018;2024-01-27T12:22:26;100977.13;;;9.11;63.13
21240;BME280;10778;48.962;9.018;2024-01-27T12:25:08;100970.66;;;9.67;64.01
21240;BME280;10778;48.962;9.018;2024-01-27T12:27:34;100958.53;;;9.48;62.83
21240;BME280;10778;48.962;9.018;2024-01-27T12:30:02;100954.28;;;9.78;62.32
21240;BME280;10778;48.962;9.018;2024-01-27T12:32:28;100936.69;;;10.56;59.41
21240;BME280;10778;48.962;9.018;2024-01-27T12:34:54;100934.44;;;10.93;59.05
21240;BME280;10778;48.962;9.018;2024-01-27T12:37:21;100929.84;;;10.97;58.17
21240;BME280;10778;48.962;9.018;2024-01-27T12:39:47;100937.91;;;10.64;58.90
21240;BME280;10778;48.962;9.018;2024-01-27T12:42:17;100945.56;;;10.08;59.88
21240;BME280;10778;48.962;9.018;2024-01-27T12:44:43;100950.50;;;9.67;60.41
21240;BME280;10778;48.962;9.018;2024-01-27T12:47:10;100942.44;;;10.01;59.31
21240;BME280;10778;48.962;9.018;2024-01-27T12:49:36;100950.78;;;9.93;59.65